sensor_id;sensor_type;location;lat;lon;timestamp;pressure;altitude;pressure_sealevel;temperature;humidity
55277;BME280;41136;51.478;-2.610;2023-07-13T00:03:01;100628.16;;;18.24;98.49
55277;BME280;41136;51.478;-2.610;2023-07-13T00:05:26;100627.75;;;18.38;97.72
55277;BME280;41136;51.478;-2.610;2023-07-13T00:07:52;100629.85;;;18.18;98.20
55277;BME280;41136;51.478;-2.610;2023-07-13T00:10:17;100632.02;;;18.36;97.76
55277;BME280;41136;51.478;-2.610;2023-07-13T00:12:42;100624.06;;;18.93;98.23
55277;BME280;41136;51.478;-2.610;2023-07-13T00:15:13;100622.79;;;18.92;98.96
55277;BME280;41136;51.478;-2.610;2023-07-13T00:17:33;100617.49;;;18.73;99.83
55277;BME280;41136;51.478;-2.610;2023-07-13T00:19:58;100617.25;;;18.96;98.50
55277;BME280;41136;51.478;-2.610;2023-07-13T00:22:23;100610.93;;;18.51;99.57
55277;BME280;41136;51.478;-2.610;2023-07-13T00:24:48;100616.86;;;18.41;99.83
55277;BME280;41136;51.478;-2.610;2023-07-13T00:27:15;100621.46;;;17.83;100.00
55277;BME280;41136;51.478;-2.610;2023-07-13T00:29:39;100622.21;;;18.65;99.75
55277;BME280;41136;51.478;-2.610;2023-07-13T00:32:05;100624.96;;;18.66;100.00
55277;BME280;41136;51.478;-2.610;2023-07-13T00:34:29;100625.50;;;18.82;99.77
55277;BME280;41136;51.478;-2.610;2023-07-13T00:36:54;100625.79;;;18.82;100.00
55277;BME280;41136;51.478;-2.610;2023-07-13T00:39:20;100623.91;;;18.15;100.00
55277;BME280;41136;51.478;-2.610;2023-07-13T00:41:46;100626.12;;;19.03;99.60
55277;BME280;41136;51.478;-2.610;2023-07-13T00:44:13;100634.52;;;18.14;100.00
55277;BME280;41136;51.478;-2.610;2023-07-13T00:46:36;100637.10;;;18.16;100.00
55277;BME280;41136;51.478;-2.610;2023-07-13T00:49:04;100628.12;;;18.46;100.00
55277;BME280;41136;51.478;-2.610;2023-07-13T00:51:31;100626.07;;;18.48;100.00
55277;BME280;41136;51.478;-2.610;2023-07-13T00:53:54;100623.23;;;18.90;100.00
55277;BME280;41136;51.478;-2.610;2023-07-13T00:56:17;100620.60;;;18.56;100.00
55277;BME280;41136;51.478;-2.610;2023-07-13T00:58:43;100619.75;;;18.90;100.00
55277;BME280;41136;51.478;-2.610;2023-07-13T01:01:08;100618.42;;;18.93;100.00
55277;BME280;41136;51.478;-2.610;2023-07-13T01:03:34;100617.32;;;18.83;100.00
55277;BME280;41136;51.478;-2.610;2023-07-13T01:05:58;100620.15;;;18.79;100.00
55277;BME280;41136;51.478;-2.610;2023-07-13T01:08:24;100626.82;;;19.02;99.76
55277;BME280;41136;51.478;-2.610;2023-07-13T01:10:53;100629.50;;;19.21;98.69
55277;BME280;41136;51.478;-2.610;2023-07-13T01:13:14;100628.28;;;18.51;100.00
55277;BME280;41136;51.478;-2.610;2023-07-13T01:15:41;100627.67;;;18.71;100.00
55277;BME280;41136;51.478;-2.610;2023-07-13T01:18:06;100626.56;;;19.11;99.05
55277;BME280;41136;51.478;-2.610;2023-07-13T01:20:30;100622.58;;;19.23;99.19
55277;BME280;41136;51.478;-2.610;2023-07-13T01:22:55;100618.39;;;18.60;100.00
55277;BME280;41136;51.478;-2.610;2023-07-13T01:25:20;100617.01;;;17.86;100.00
55277;BME280;41136;51.478;-2.610;2023-07-13T01:27:46;100623.90;;;18.95;100.00
55277;BME280;41136;51.478;-2.610;2023-07-13T01:30:11;100620.65;;;18.80;100.00
55277;BME280;41136;51.478;-2.610;2023-07-13T01:32:36;100619.80;;;18.49;100.00
55277;BME280;41136;51.478;-2.610;2023-07-13T01:35:02;100617.31;;;18.81;100.00
55277;BME280;41136;51.478;-2.610;2023-07-13T01:37:27;100611.58;;;18.79;100.00
55277;BME280;41136;51.478;-2.610;2023-07-13T01:39:53;100614.76;;;19.08;99.80
55277;BME280;41136;51.478;-2.610;2023-07-13T01:42:17;100609.83;;;18.35;100.00
55277;BME280;41136;51.478;-2.610;2023-07-13T01:44:43;100611.19;;;18.38;100.00
55277;BME280;41136;51.478;-2.610;2023-07-13T01:47:08;100610.58;;;17.93;100.00
55277;BME280;41136;51.478;-2.610;2023-07-13T01:49:33;100614.96;;;17.94;100.00
55277;BME280;41136;51.478;-2.610;2023-07-13T01:51:58;100612.30;;;18.08;100.00
55277;BME280;41136;51.478;-2.610;2023-07-13T01:54:24;100608.61;;;18.35;100.00
55277;BME280;41136;51.478;-2.610;2023-07-13T01:56:49;100605.23;;;18.06;100.00
55277;BME280;41136;51.478;-2.610;2023-07-13T01:59:14;100607.14;;;18.48;100.00
55277;BME280;41136;51.478;-2.610;2023-07-13T02:01:40;100606.61;;;18.57;100.00
55277;BME280;41136;51.478;-2.610;2023-07-13T02:04:05;100603.89;;;18.28;100.00
55277;BME280;41136;51.478;-2.610;2023-07-13T02:06:31;100603.17;;;18.48;100.00
55277;BME280;41136;51.478;-2.610;2023-07-13T02:08:57;100601.31;;;18.44;100.00
55277;BME280;41136;51.478;-2.610;2023-07-13T02:11:21;100602.34;;;18.33;100.00
55277;BME280;41136;51.478;-2.610;2023-07-13T02:13:47;100600.06;;;18.28;100.00
55277;BME280;41136;51.478;-2.610;2023-07-13T02:16:12;100596.18;;;18.89;100.00
55277;BME280;41136;51.478;-2.610;2023-07-13T02:18:37;100592.62;;;18.61;100.00
55277;BME280;41136;51.478;-2.610;2023-07-13T02:21:02;100589.29;;;18.49;100.00
55277;BME280;41136;51.478;-2.610;2023-07-13T02:23:28;100591.76;;;18.85;100.00
55277;BME280;41136;51.478;-2.610;2023-07-13T02:25:55;100592.62;;;18.71;100.00
55277;BME280;41136;51.478;-2.610;2023-07-13T02:28:18;100590.70;;;18.26;100.00
55277;BME280;41136;51.478;-2.610;2023-07-13T02:30:43;100590.31;;;18.98;100.00
55277;BME280;41136;51.478;-2.610;2023-07-13T02:33:09;100591.24;;;18.72;100.00
55277;BME280;41136;51.478;-2.610;2023-07-13T02:35:34;100591.34;;;18.87;100.00
55277;BME280;41136;51.478;-2.610;2023-07-13T02:37:59;100592.02;;;18.98;100.00
55277;BME280;41136;51.478;-2.610;2023-07-13T02:40:25;100590.89;;;18.71;100.00
55277;BME280;41136;51.478;-2.610;2023-07-13T02:42:50;100591.66;;;19.27;100.00
55277;BME280;41136;51.478;-2.610;2023-07-13T02:45:15;100588.30;;;18.78;100.00
55277;BME280;41136;51.478;-2.610;2023-07-13T02:47:41;100587.00;;;19.12;100.00
55277;BME280;41136;51.478;-2.610;2023-07-13T02:50:06;100588.10;;;18.43;100.00
55277;BME280;41136;51.478;-2.610;2023-07-13T02:52:31;100585.93;;;18.56;100.00
55277;BME280;41136;51.478;-2.610;2023-07-13T02:54:56;100585.70;;;18.08;100.00
55277;BME280;41136;51.478;-2.610;2023-07-13T02:57:21;100588.41;;;18.71;100.00
55277;BME280;41136;51.478;-2.610;2023-07-13T02:59:47;100586.53;;;18.63;100.00
55277;BME280;41136;51.478;-2.610;2023-07-13T03:02:12;100592.17;;;18.47;100.00
55277;BME280;41136;51.478;-2.610;2023-07-13T03:04:37;100591.00;;;18.13;100.00
55277;BME280;41136;51.478;-2.610;2023-07-13T03:07:03;100591.72;;;18.73;100.00
55277;BME280;41136;51.478;-2.610;2023-07-13T03:09:28;100588.95;;;18.36;100.00
55277;BME280;41136;51.478;-2.610;2023-07-13T03:11:53;100590.83;;;18.47;100.00
55277;BME280;41136;51.478;-2.610;2023-07-13T03:14:18;100589.77;;;18.62;100.00
55277;BME280;41136;51.478;-2.610;2023-07-13T03:16:43;100592.75;;;18.51;100.00
55277;BME280;41136;51.478;-2.610;2023-07-13T03:19:09;100593.57;;;18.58;100.00
55277;BME280;41136;51.478;-2.610;2023-07-13T03:21:35;100592.29;;;17.57;100.00
55277;BME280;41136;51.478;-2.610;2023-07-13T03:24:00;100585.67;;;18.93;100.00
55277;BME280;41136;51.478;-2.610;2023-07-13T03:26:25;100583.85;;;18.49;100.00
55277;BME280;41136;51.478;-2.610;2023-07-13T03:28:51;100587.53;;;18.69;100.00
55277;BME280;41136;51.478;-2.610;2023-07-13T03:31:22;100590.66;;;18.64;100.00
55277;BME280;41136;51.478;-2.610;2023-07-13T03:33:41;100595.00;;;19.02;100.00
55277;BME280;41136;51.478;-2.610;2023-07-13T03:36:09;100597.21;;;18.72;100.00
55277;BME280;41136;51.478;-2.610;2023-07-13T03:38:32;100599.44;;;18.92;100.00
55277;BME280;41136;51.478;-2.610;2023-07-13T03:40:57;100597.71;;;18.46;100.00
55277;BME280;41136;51.478;-2.610;2023-07-13T03:43:22;100600.59;;;18.55;100.00
55277;BME280;41136;51.478;-2.610;2023-07-13T03:45:47;100602.13;;;19.04;100.00
55277;BME280;41136;51.478;-2.610;2023-07-13T03:48:13;100601.03;;;18.50;100.00
55277;BME280;41136;51.478;-2.610;2023-07-13T03:50:38;100600.67;;;18.76;100.00
55277;BME280;41136;51.478;-2.610;2023-07-13T03:53:03;100605.80;;;18.16;100.00
55277;BME280;41136;51.478;-2.610;2023-07-13T03:55:28;100608.90;;;18.39;100.00
55277;BME280;41136;51.478;-2.610;2023-07-13T03:57:58;100608.53;;;18.64;100.00
55277;BME280;41136;51.478;-2.610;2023-07-13T04:00:20;100603.69;;;18.61;100.00
55277;BME280;41136;51.478;-2.610;2023-07-13T04:02:44;100603.35;;;18.45;100.00
55277;BME280;41136;51.478;-2.610;2023-07-13T04:05:10;100603.61;;;18.30;100.00
55277;BME280;41136;51.478;-2.610;2023-07-13T04:07:35;100607.10;;;18.08;100.00
55277;BME280;41136;51.478;-2.610;2023-07-13T04:10:00;100610.00;;;17.93;100.00
55277;BME280;41136;51.478;-2.610;2023-07-13T04:14:35;100614.71;;;18.03;100.00
55277;BME280;41136;51.478;-2.610;2023-07-13T04:17:01;100618.93;;;18.18;99.17
55277;BME280;41136;51.478;-2.610;2023-07-13T04:19:27;100619.78;;;18.51;98.83
55277;BME280;41136;51.478;-2.610;2023-07-13T04:24:06;100623.06;;;18.56;96.96
55277;BME280;41136;51.478;-2.610;2023-07-13T04:26:31;100623.64;;;18.58;96.55
55277;BME280;41136;51.478;-2.610;2023-07-13T04:28:56;100630.21;;;18.65;96.88
55277;BME280;41136;51.478;-2.610;2023-07-13T04:31:21;100632.61;;;18.69;96.70
55277;BME280;41136;51.478;-2.610;2023-07-13T04:33:47;100633.92;;;19.47;97.03
55277;BME280;41136;51.478;-2.610;2023-07-13T04:36:12;100634.35;;;19.25;98.33
55277;BME280;41136;51.478;-2.610;2023-07-13T04:38:37;100636.20;;;18.83;99.83
55277;BME280;41136;51.478;-2.610;2023-07-13T04:41:04;100635.64;;;18.71;100.00
55277;BME280;41136;51.478;-2.610;2023-07-13T04:43:29;100636.71;;;18.89;100.00
55277;BME280;41136;51.478;-2.610;2023-07-13T04:45:54;100635.81;;;18.56;100.00
55277;BME280;41136;51.478;-2.610;2023-07-13T04:48:19;100635.99;;;19.03;100.00
55277;BME280;41136;51.478;-2.610;2023-07-13T04:50:43;100634.03;;;18.32;100.00
55277;BME280;41136;51.478;-2.610;2023-07-13T04:53:09;100635.70;;;19.16;100.00
55277;BME280;41136;51.478;-2.610;2023-07-13T04:55:34;100635.42;;;18.37;100.00
55277;BME280;41136;51.478;-2.610;2023-07-13T04:57:59;100635.30;;;18.47;100.00
55277;BME280;41136;51.478;-2.610;2023-07-13T05:00:25;100634.18;;;18.82;100.00
55277;BME280;41136;51.478;-2.610;2023-07-13T05:02:50;100637.18;;;18.60;100.00
55277;BME280;41136;51.478;-2.610;2023-07-13T05:05:15;100640.31;;;18.55;100.00
55277;BME280;41136;51.478;-2.610;2023-07-13T05:07:40;100638.22;;;18.80;100.00
55277;BME280;41136;51.478;-2.610;2023-07-13T05:10:07;100640.92;;;18.36;100.00
55277;BME280;41136;51.478;-2.610;2023-07-13T05:12:31;100642.15;;;18.90;100.00
55277;BME280;41136;51.478;-2.610;2023-07-13T05:14:56;100644.71;;;19.39;100.00
55277;BME280;41136;51.478;-2.610;2023-07-13T05:17:21;100649.51;;;18.67;100.00
55277;BME280;41136;51.478;-2.610;2023-07-13T05:19:47;100649.94;;;18.86;100.00
55277;BME280;41136;51.478;-2.610;2023-07-13T05:22:12;100651.64;;;18.35;100.00
55277;BME280;41136;51.478;-2.610;2023-07-13T05:24:37;100653.84;;;18.36;100.00
55277;BME280;41136;51.478;-2.610;2023-07-13T05:27:03;100654.66;;;17.94;100.00
55277;BME280;41136;51.478;-2.610;2023-07-13T05:29:28;100656.15;;;18.25;100.00
55277;BME280;41136;51.478;-2.610;2023-07-13T05:31:53;100660.97;;;18.06;100.00
55277;BME280;41136;51.478;-2.610;2023-07-13T05:34:18;100661.73;;;18.48;100.00
55277;BME280;41136;51.478;-2.610;2023-07-13T05:36:43;100660.82;;;18.40;100.00
55277;BME280;41136;51.478;-2.610;2023-07-13T05:39:09;100662.31;;;18.11;100.00
55277;BME280;41136;51.478;-2.610;2023-07-13T05:41:35;100663.30;;;18.90;100.00
55277;BME280;41136;51.478;-2.610;2023-07-13T05:43:59;100664.09;;;19.04;100.00
55277;BME280;41136;51.478;-2.610;2023-07-13T05:46:25;100664.64;;;19.38;100.00
55277;BME280;41136;51.478;-2.610;2023-07-13T05:48:50;100673.42;;;18.70;100.00
55277;BME280;41136;51.478;-2.610;2023-07-13T05:51:15;100679.19;;;18.64;100.00
55277;BME280;41136;51.478;-2.610;2023-07-13T05:53:40;100678.62;;;18.87;100.00
55277;BME280;41136;51.478;-2.610;2023-07-13T05:56:06;100677.54;;;18.78;100.00
55277;BME280;41136;51.478;-2.610;2023-07-13T05:58:31;100678.88;;;19.24;100.00
55277;BME280;41136;51.478;-2.610;2023-07-13T06:01:01;100677.02;;;19.23;100.00
55277;BME280;41136;51.478;-2.610;2023-07-13T06:03:21;100679.67;;;18.84;100.00
55277;BME280;41136;51.478;-2.610;2023-07-13T06:05:47;100684.66;;;19.44;100.00
55277;BME280;41136;51.478;-2.610;2023-07-13T06:08:12;100681.67;;;18.68;100.00
55277;BME280;41136;51.478;-2.610;2023-07-13T06:10:37;100683.46;;;19.11;100.00
55277;BME280;41136;51.478;-2.610;2023-07-13T06:13:03;100683.39;;;19.12;100.00
55277;BME280;41136;51.478;-2.610;2023-07-13T06:15:28;100687.51;;;19.25;100.00
55277;BME280;41136;51.478;-2.610;2023-07-13T06:17:53;100687.63;;;19.01;100.00
55277;BME280;41136;51.478;-2.610;2023-07-13T06:20:18;100690.30;;;19.14;100.00
55277;BME280;41136;51.478;-2.610;2023-07-13T06:22:43;100695.32;;;19.16;100.00
55277;BME280;41136;51.478;-2.610;2023-07-13T06:25:09;100695.13;;;19.50;100.00
55277;BME280;41136;51.478;-2.610;2023-07-13T06:27:34;100701.01;;;19.25;100.00
55277;BME280;41136;51.478;-2.610;2023-07-13T06:29:59;100708.76;;;19.46;100.00
55277;BME280;41136;51.478;-2.610;2023-07-13T06:32:25;100710.06;;;19.35;100.00
55277;BME280;41136;51.478;-2.610;2023-07-13T06:34:50;100713.08;;;19.18;100.00
55277;BME280;41136;51.478;-2.610;2023-07-13T06:37:15;100718.99;;;19.41;100.00
55277;BME280;41136;51.478;-2.610;2023-07-13T06:39:40;100718.94;;;19.35;100.00
55277;BME280;41136;51.478;-2.610;2023-07-13T06:42:06;100719.72;;;18.92;100.00
55277;BME280;41136;51.478;-2.610;2023-07-13T06:44:31;100718.19;;;19.53;100.00
55277;BME280;41136;51.478;-2.610;2023-07-13T06:46:56;100723.67;;;19.18;100.00
55277;BME280;41136;51.478;-2.610;2023-07-13T06:49:21;100729.35;;;19.48;100.00
55277;BME280;41136;51.478;-2.610;2023-07-13T06:51:47;100728.59;;;19.11;100.00
55277;BME280;41136;51.478;-2.610;2023-07-13T06:54:14;100729.88;;;19.67;100.00
55277;BME280;41136;51.478;-2.610;2023-07-13T06:56:37;100733.44;;;19.51;100.00
55277;BME280;41136;51.478;-2.610;2023-07-13T06:59:03;100737.64;;;18.66;100.00
55277;BME280;41136;51.478;-2.610;2023-07-13T07:01:28;100735.26;;;18.55;100.00
55277;BME280;41136;51.478;-2.610;2023-07-13T07:03:53;100738.49;;;19.22;100.00
55277;BME280;41136;51.478;-2.610;2023-07-13T07:06:20;100744.44;;;18.86;100.00
55277;BME280;41136;51.478;-2.610;2023-07-13T07:08:44;100744.98;;;19.37;100.00
55277;BME280;41136;51.478;-2.610;2023-07-13T07:11:12;100750.42;;;18.93;100.00
55277;BME280;41136;51.478;-2.610;2023-07-13T07:13:34;100750.03;;;18.78;100.00
55277;BME280;41136;51.478;-2.610;2023-07-13T07:15:59;100748.96;;;18.91;100.00
55277;BME280;41136;51.478;-2.610;2023-07-13T07:18:25;100749.91;;;19.47;100.00
55277;BME280;41136;51.478;-2.610;2023-07-13T07:20:51;100753.33;;;19.46;100.00
55277;BME280;41136;51.478;-2.610;2023-07-13T07:23:15;100752.23;;;19.06;100.00
55277;BME280;41136;51.478;-2.610;2023-07-13T07:25:43;100748.78;;;19.03;100.00
55277;BME280;41136;51.478;-2.610;2023-07-13T07:28:06;100753.89;;;19.01;100.00
55277;BME280;41136;51.478;-2.610;2023-07-13T07:30:31;100749.79;;;19.60;100.00
55277;BME280;41136;51.478;-2.610;2023-07-13T07:32:56;100743.29;;;19.54;100.00
55277;BME280;41136;51.478;-2.610;2023-07-13T07:35:21;100745.85;;;18.54;100.00
55277;BME280;41136;51.478;-2.610;2023-07-13T07:37:47;100751.51;;;18.88;100.00
55277;BME280;41136;51.478;-2.610;2023-07-13T07:40:12;100756.89;;;18.98;100.00
55277;BME280;41136;51.478;-2.610;2023-07-13T07:42:37;100752.15;;;19.55;100.00
55277;BME280;41136;51.478;-2.610;2023-07-13T07:45:03;100754.25;;;19.46;100.00
55277;BME280;41136;51.478;-2.610;2023-07-13T07:47:28;100757.32;;;19.36;100.00
55277;BME280;41136;51.478;-2.610;2023-07-13T07:49:53;100761.08;;;19.76;100.00
55277;BME280;41136;51.478;-2.610;2023-07-13T07:52:18;100760.91;;;19.70;100.00
55277;BME280;41136;51.478;-2.610;2023-07-13T07:54:43;100761.37;;;19.48;100.00
55277;BME280;41136;51.478;-2.610;2023-07-13T07:57:09;100761.31;;;19.83;100.00
55277;BME280;41136;51.478;-2.610;2023-07-13T07:59:34;100769.23;;;19.86;100.00
55277;BME280;41136;51.478;-2.610;2023-07-13T08:01:59;100770.50;;;20.29;100.00
55277;BME280;41136;51.478;-2.610;2023-07-13T08:04:24;100768.36;;;20.34;100.00
55277;BME280;41136;51.478;-2.610;2023-07-13T08:06:50;100766.03;;;20.02;100.00
55277;BME280;41136;51.478;-2.610;2023-07-13T08:09:15;100769.10;;;19.79;100.00
55277;BME280;41136;51.478;-2.610;2023-07-13T08:11:40;100768.51;;;19.77;100.00
55277;BME280;41136;51.478;-2.610;2023-07-13T08:14:05;100768.11;;;20.01;100.00
55277;BME280;41136;51.478;-2.610;2023-07-13T08:16:31;100768.86;;;20.29;100.00
55277;BME280;41136;51.478;-2.610;2023-07-13T08:18:56;100769.76;;;20.29;100.00
55277;BME280;41136;51.478;-2.610;2023-07-13T08:21:21;100765.32;;;19.61;100.00
55277;BME280;41136;51.478;-2.610;2023-07-13T08:23:46;100768.92;;;19.52;100.00
55277;BME280;41136;51.478;-2.610;2023-07-13T08:26:11;100772.28;;;19.55;100.00
55277;BME280;41136;51.478;-2.610;2023-07-13T08:28:37;100772.90;;;19.92;100.00
55277;BME280;41136;51.478;-2.610;2023-07-13T08:31:04;100774.08;;;19.85;100.00
55277;BME280;41136;51.478;-2.610;2023-07-13T08:33:27;100774.67;;;19.77;100.00
55277;BME280;41136;51.478;-2.610;2023-07-13T08:35:52;100771.30;;;19.56;100.00
55277;BME280;41136;51.478;-2.610;2023-07-13T08:38:18;100770.39;;;19.30;100.00
55277;BME280;41136;51.478;-2.610;2023-07-13T08:40:43;100769.08;;;19.50;100.00
55277;BME280;41136;51.478;-2.610;2023-07-13T08:43:12;100766.35;;;19.38;100.00
55277;BME280;41136;51.478;-2.610;2023-07-13T08:45:38;100764.74;;;19.59;100.00
55277;BME280;41136;51.478;-2.610;2023-07-13T08:48:03;100761.05;;;19.02;100.00
55277;BME280;41136;51.478;-2.610;2023-07-13T08:50:30;100762.71;;;19.94;100.00
55277;BME280;41136;51.478;-2.610;2023-07-13T08:52:49;100761.24;;;19.88;100.00
55277;BME280;41136;51.478;-2.610;2023-07-13T08:55:18;100764.51;;;19.78;100.00
55277;BME280;41136;51.478;-2.610;2023-07-13T08:57:41;100764.53;;;19.80;100.00
55277;BME280;41136;51.478;-2.610;2023-07-13T09:00:08;100767.67;;;20.23;100.00
55277;BME280;41136;51.478;-2.610;2023-07-13T09:02:42;100768.56;;;20.17;100.00
55277;BME280;41136;51.478;-2.610;2023-07-13T09:05:00;100770.60;;;20.07;100.00
55277;BME280;41136;51.478;-2.610;2023-07-13T09:07:29;100768.30;;;20.23;100.00
55277;BME280;41136;51.478;-2.610;2023-07-13T09:09:55;100770.40;;;20.32;100.00
55277;BME280;41136;51.478;-2.610;2023-07-13T09:12:15;100773.05;;;19.73;100.00
55277;BME280;41136;51.478;-2.610;2023-07-13T09:14:42;100772.84;;;20.38;100.00
55277;BME280;41136;51.478;-2.610;2023-07-13T09:17:03;100773.50;;;20.06;100.00
55277;BME280;41136;51.478;-2.610;2023-07-13T09:19:30;100769.94;;;20.13;100.00
55277;BME280;41136;51.478;-2.610;2023-07-13T09:21:53;100767.28;;;19.87;100.00
55277;BME280;41136;51.478;-2.610;2023-07-13T09:24:27;100767.24;;;19.44;100.00
55277;BME280;41136;51.478;-2.610;2023-07-13T09:26:42;100768.76;;;19.69;100.00
55277;BME280;41136;51.478;-2.610;2023-07-13T09:29:14;100772.18;;;19.84;100.00
55277;BME280;41136;51.478;-2.610;2023-07-13T09:31:39;100774.13;;;19.51;100.00
55277;BME280;41136;51.478;-2.610;2023-07-13T09:33:58;100769.83;;;19.34;100.00
55277;BME280;41136;51.478;-2.610;2023-07-13T09:36:25;100769.96;;;19.62;100.00
55277;BME280;41136;51.478;-2.610;2023-07-13T09:38:51;100772.61;;;19.90;100.00
55277;BME280;41136;51.478;-2.610;2023-07-13T09:41:21;100771.76;;;19.45;100.00
55277;BME280;41136;51.478;-2.610;2023-07-13T09:43:39;100773.90;;;20.26;100.00
55277;BME280;41136;51.478;-2.610;2023-07-13T09:46:04;100776.87;;;19.72;100.00
55277;BME280;41136;51.478;-2.610;2023-07-13T09:48:34;100782.91;;;20.01;100.00
55277;BME280;41136;51.478;-2.610;2023-07-13T09:50:55;100786.76;;;19.67;100.00
55277;BME280;41136;51.478;-2.610;2023-07-13T09:53:20;100785.95;;;19.89;100.00
55277;BME280;41136;51.478;-2.610;2023-07-13T09:55:46;100791.19;;;19.41;100.00
55277;BME280;41136;51.478;-2.610;2023-07-13T09:58:12;100792.24;;;19.61;100.00
55277;BME280;41136;51.478;-2.610;2023-07-13T10:00:35;100795.80;;;19.00;100.00
55277;BME280;41136;51.478;-2.610;2023-07-13T10:03:04;100789.59;;;19.67;100.00
55277;BME280;41136;51.478;-2.610;2023-07-13T10:05:26;100788.34;;;19.41;100.00
55277;BME280;41136;51.478;-2.610;2023-07-13T10:07:51;100785.91;;;19.76;100.00
55277;BME280;41136;51.478;-2.610;2023-07-13T10:10:21;100789.53;;;19.10;100.00
55277;BME280;41136;51.478;-2.610;2023-07-13T10:12:42;100786.47;;;19.63;100.00
55277;BME280;41136;51.478;-2.610;2023-07-13T10:15:13;100787.33;;;19.65;100.00
55277;BME280;41136;51.478;-2.610;2023-07-13T10:17:32;100786.99;;;19.83;100.00
55277;BME280;41136;51.478;-2.610;2023-07-13T10:19:59;100789.03;;;20.15;100.00
55277;BME280;41136;51.478;-2.610;2023-07-13T10:22:27;100790.15;;;19.79;100.00
55277;BME280;41136;51.478;-2.610;2023-07-13T10:24:49;100795.06;;;20.29;100.00
55277;BME280;41136;51.478;-2.610;2023-07-13T10:27:17;100793.84;;;20.13;100.00
55277;BME280;41136;51.478;-2.610;2023-07-13T10:29:43;100793.57;;;20.53;100.00
55277;BME280;41136;51.478;-2.610;2023-07-13T10:32:09;100796.82;;;20.53;100.00
55277;BME280;41136;51.478;-2.610;2023-07-13T10:34:29;100797.03;;;20.29;100.00
55277;BME280;41136;51.478;-2.610;2023-07-13T10:36:54;100798.97;;;19.90;100.00
55277;BME280;41136;51.478;-2.610;2023-07-13T10:39:23;100800.13;;;20.57;100.00
55277;BME280;41136;51.478;-2.610;2023-07-13T10:41:46;100802.09;;;20.16;100.00
55277;BME280;41136;51.478;-2.610;2023-07-13T10:44:18;100806.00;;;19.93;100.00
55277;BME280;41136;51.478;-2.610;2023-07-13T10:46:35;100803.26;;;19.98;100.00
55277;BME280;41136;51.478;-2.610;2023-07-13T10:49:05;100801.33;;;20.34;100.00
55277;BME280;41136;51.478;-2.610;2023-07-13T10:51:26;100796.50;;;20.41;100.00
55277;BME280;41136;51.478;-2.610;2023-07-13T10:56:23;100800.37;;;20.43;100.00
55277;BME280;41136;51.478;-2.610;2023-07-13T10:58:42;100794.82;;;20.27;99.20
55277;BME280;41136;51.478;-2.610;2023-07-13T11:01:09;100799.96;;;20.18;99.59
55277;BME280;41136;51.478;-2.610;2023-07-13T11:03:33;100798.01;;;21.17;98.44
55277;BME280;41136;51.478;-2.610;2023-07-13T11:06:06;100797.65;;;20.64;98.92
55277;BME280;41136;51.478;-2.610;2023-07-13T11:08:32;100792.58;;;21.42;96.20
55277;BME280;41136;51.478;-2.610;2023-07-13T11:10:50;100791.53;;;21.19;92.90
55277;BME280;41136;51.478;-2.610;2023-07-13T11:15:44;100786.15;;;20.86;90.84
55277;BME280;41136;51.478;-2.610;2023-07-13T11:18:03;100788.59;;;20.50;89.12
55277;BME280;41136;51.478;-2.610;2023-07-13T11:20:33;100785.26;;;21.49;86.95
55277;BME280;41136;51.478;-2.610;2023-07-13T11:25:27;100790.51;;;21.04;87.42
55277;BME280;41136;51.478;-2.610;2023-07-13T11:27:49;100793.50;;;21.30;88.01
55277;BME280;41136;51.478;-2.610;2023-07-13T11:32:35;100800.15;;;20.84;88.13
55277;BME280;41136;51.478;-2.610;2023-07-13T11:34:59;100801.34;;;20.41;89.37
55277;BME280;41136;51.478;-2.610;2023-07-13T11:37:24;100803.05;;;19.23;90.83
55277;BME280;41136;51.478;-2.610;2023-07-13T11:39:51;100803.22;;;19.74;91.64
55277;BME280;41136;51.478;-2.610;2023-07-13T11:42:17;100803.30;;;19.92;90.86
55277;BME280;41136;51.478;-2.610;2023-07-13T11:44:43;100805.23;;;20.17;90.17
55277;BME280;41136;51.478;-2.610;2023-07-13T11:47:10;100804.56;;;20.27;90.32
55277;BME280;41136;51.478;-2.610;2023-07-13T11:49:31;100802.17;;;20.88;90.03
55277;BME280;41136;51.478;-2.610;2023-07-13T11:51:56;100800.92;;;20.59;90.59
55277;BME280;41136;51.478;-2.610;2023-07-13T11:54:25;100796.62;;;19.37;92.79
55277;BME280;41136;51.478;-2.610;2023-07-13T11:56:46;100788.81;;;19.51;92.62
55277;BME280;41136;51.478;-2.610;2023-07-13T11:59:13;100789.38;;;20.36;91.01
55277;BME280;41136;51.478;-2.610;2023-07-13T12:01:41;100792.02;;;20.02;90.19
55277;BME280;41136;51.478;-2.610;2023-07-13T12:04:03;100795.14;;;20.17;89.99
55277;BME280;41136;51.478;-2.610;2023-07-13T12:06:29;100794.71;;;20.11;89.88
55277;BME280;41136;51.478;-2.610;2023-07-13T12:08:52;100790.80;;;20.38;91.09
55277;BME280;41136;51.478;-2.610;2023-07-13T12:11:18;100785.82;;;20.77;90.61
55277;BME280;41136;51.478;-2.610;2023-07-13T12:13:44;100778.84;;;20.75;89.03
55277;BME280;41136;51.478;-2.610;2023-07-13T12:16:14;100778.98;;;20.73;88.05
55277;BME280;41136;51.478;-2.610;2023-07-13T12:18:33;100778.90;;;20.90;86.42
55277;BME280;41136;51.478;-2.610;2023-07-13T12:20:59;100782.35;;;21.16;87.36
55277;BME280;41136;51.478;-2.610;2023-07-13T12:23:25;100780.76;;;20.59;89.99
55277;BME280;41136;51.478;-2.610;2023-07-13T12:25:49;100779.33;;;21.41;91.55
55277;BME280;41136;51.478;-2.610;2023-07-13T12:28:20;100774.48;;;21.21;91.49
55277;BME280;41136;51.478;-2.610;2023-07-13T12:30:39;100775.97;;;21.28;86.03
55277;BME280;41136;51.478;-2.610;2023-07-13T12:33:08;100766.66;;;21.52;86.83
55277;BME280;41136;51.478;-2.610;2023-07-13T12:35:30;100778.45;;;21.29;84.89
55277;BME280;41136;51.478;-2.610;2023-07-13T12:37:56;100778.45;;;21.36;83.22